TimeMYT,TemperatureF,Dew PointF,Humidity,Sea Level PressureIn,VisibilityMPH,Wind Direction,Wind SpeedMPH,Gust SpeedMPH,PrecipitationIn,Events,Conditions,WindDirDegrees,DateUTC
12:00 AM,73.4,73.4,100,0.00,3.7,WNW,3.5,-,N/A,,Mostly Cloudy,290,2012-11-03 16:00:00
1:00 AM,75.2,73.4,94,0.00,3.7,NNW,4.6,-,N/A,,Mostly Cloudy,340,2012-11-03 17:00:00
2:00 AM,75.2,73.4,94,0.00,3.7,WNW,3.5,-,N/A,,Mostly Cloudy,300,2012-11-03 18:00:00
3:00 AM,75.2,73.4,94,0.00,3.7,West,3.5,-,N/A,,Mostly Cloudy,260,2012-11-03 19:00:00
4:00 AM,75.2,73.4,94,0.00,3.1,WSW,3.5,-,N/A,,Mostly Cloudy,250,2012-11-03 20:00:00
5:00 AM,75.2,73.4,94,0.00,3.1,West,5.8,-,N/A,,Mostly Cloudy,270,2012-11-03 21:00:00
6:00 AM,75.2,73.4,94,0.00,2.5,WSW,3.5,-,N/A,,Mostly Cloudy,250,2012-11-03 22:00:00
7:00 AM,73.4,73.4,100,0.00,3.7,West,4.6,-,N/A,,Mostly Cloudy,260,2012-11-03 23:00:00
8:00 AM,75.2,75.2,100,0.00,5.0,West,5.8,-,N/A,,Mostly Cloudy,260,2012-11-04 00:00:00
9:00 AM,78.8,75.2,89,0.00,6.2,West,2.3,-,N/A,,Mostly Cloudy,280,2012-11-04 01:00:00
10:00 AM,82.4,77.0,84,0.00,6.2,NW,4.6,-,N/A,,Mostly Cloudy,320,2012-11-04 02:00:00
11:00 AM,82.4,75.2,79,0.00,6.2,NW,8.1,-,N/A,,Mostly Cloudy,310,2012-11-04 03:00:00
12:00 PM,82.4,75.2,79,0.00,6.2,NW,10.4,-,N/A,,Mostly Cloudy,320,2012-11-04 04:00:00
1:00 PM,82.4,75.2,79,0.00,6.2,NNW,12.7,-,N/A,,Mostly Cloudy,340,2012-11-04 05:00:00
2:00 PM,84.2,75.2,74,0.00,6.2,NNW,10.4,-,N/A,,Mostly Cloudy,330,2012-11-04 06:00:00
3:00 PM,86.0,75.2,70,0.00,6.2,North,9.2,-,N/A,,Mostly Cloudy,350,2012-11-04 07:00:00
4:00 PM,84.2,77.0,79,0.00,6.2,North,11.5,-,N/A,,Mostly Cloudy,350,2012-11-04 08:00:00
5:00 PM,84.2,75.2,74,0.00,6.2,North,5.8,-,N/A,,Mostly Cloudy,350,2012-11-04 09:00:00
6:00 PM,82.4,75.2,79,0.00,6.2,NNW,4.6,-,N/A,,Mostly Cloudy,340,2012-11-04 10:00:00
7:00 PM,80.6,75.2,84,0.00,6.2,NW,3.5,-,N/A,,Mostly Cloudy,310,2012-11-04 11:00:00
8:00 PM,78.8,75.2,89,0.00,6.2,WNW,3.5,-,N/A,,Mostly Cloudy,300,2012-11-04 12:00:00
9:00 PM,78.8,75.2,89,0.00,6.2,NW,4.6,-,N/A,,Mostly Cloudy,310,2012-11-04 13:00:00
10:00 PM,78.8,75.2,89,0.00,6.2,West,4.6,-,N/A,,Mostly Cloudy,280,2012-11-04 14:00:00
11:00 PM,77.0,75.2,94,0.00,6.2,West,3.5,-,N/A,,Mostly Cloudy,270,2012-11-04 15:00:00